createdAt,value
2022-08-18T00:00:20.405Z,66.39
2022-08-18T00:03:00.467Z,67.16
2022-08-18T00:05:28.430Z,67.51
2022-08-18T00:07:59.114Z,69.08
2022-08-18T00:10:26.668Z,70.15
2022-08-18T00:12:58.660Z,71.89
2022-08-18T00:15:28.506Z,72.52
2022-08-18T00:17:55.329Z,71.15
2022-08-18T00:20:24.678Z,70.83
2022-08-18T00:22:53.211Z,70.53
2022-08-18T00:25:21.196Z,69.49
2022-08-18T00:27:48.582Z,68.44
2022-08-18T00:30:20.201Z,66.96
2022-08-18T00:32:56.531Z,66.23
2022-08-18T00:35:29.035Z,66.48
2022-08-18T00:37:59.628Z,66.96
2022-08-18T00:40:37.713Z,66.56
2022-08-18T00:43:08.497Z,67.41
2022-08-18T00:45:39.343Z,68.23
2022-08-18T00:48:09.241Z,68.00
2022-08-18T00:50:56.432Z,68.78
2022-08-18T00:53:35.893Z,68.76
2022-08-18T00:56:13.018Z,69.00
2022-08-18T00:58:49.104Z,69.45
2022-08-18T01:01:21.260Z,69.92
2022-08-18T01:03:53.894Z,69.15
2022-08-18T01:06:32.338Z,69.31
2022-08-18T01:09:00.253Z,68.26
2022-08-18T01:11:28.592Z,68.41
2022-08-18T01:13:56.074Z,67.55
2022-08-18T01:16:53.819Z,67.57
2022-08-18T01:19:45.035Z,68.79
2022-08-18T01:22:27.228Z,68.75
2022-08-18T01:25:17.172Z,68.95
2022-08-18T01:27:44.672Z,69.38
2022-08-18T01:30:17.321Z,68.22
2022-08-18T01:32:47.536Z,67.81
2022-08-18T01:35:17.774Z,67.73
2022-08-18T01:37:44.659Z,67.81
2022-08-18T01:41:21.349Z,69.23
2022-08-18T01:43:04.326Z,69.46
2022-08-18T01:45:34.543Z,69.64
2022-08-18T01:48:01.704Z,68.77
2022-08-18T01:50:30.212Z,68.82
2022-08-18T01:52:57.042Z,68.91
2022-08-18T01:55:24.953Z,67.41
2022-08-18T01:57:51.885Z,67.13
2022-08-18T02:00:19.187Z,67.38
2022-08-18T02:02:58.151Z,67.62
2022-08-18T02:05:43.783Z,67.05
2022-08-18T02:08:12.467Z,67.36
2022-08-18T02:10:40.372Z,67.58
2022-08-18T02:13:08.358Z,67.28
2022-08-18T02:15:35.586Z,67.68
2022-08-18T02:18:02.408Z,67.27
2022-08-18T02:20:29.271Z,66.90
2022-08-18T02:22:58.509Z,66.54
2022-08-18T02:25:25.327Z,66.60
2022-08-18T02:27:53.289Z,66.67
2022-08-18T02:30:20.486Z,66.85
2022-08-18T02:32:47.455Z,66.63
2022-08-18T02:35:14.600Z,67.26
2022-08-18T02:37:42.887Z,67.16
2022-08-18T02:40:15.110Z,68.04
2022-08-18T02:42:44.555Z,67.44
2022-08-18T02:45:13.217Z,67.63
2022-08-18T02:47:40.450Z,67.21
2022-08-18T02:50:11.006Z,67.42
2022-08-18T02:52:38.422Z,67.15
2022-08-18T02:55:08.137Z,66.86
2022-08-18T02:57:34.944Z,67.31
2022-08-18T03:00:02.124Z,67.20
2022-08-18T03:02:28.909Z,67.36
2022-08-18T03:04:55.767Z,67.45
2022-08-18T03:07:22.603Z,67.28
2022-08-18T03:09:49.502Z,67.11
2022-08-18T03:12:16.571Z,66.81
2022-08-18T03:14:43.533Z,66.77
2022-08-18T03:17:10.487Z,67.04
2022-08-18T03:19:37.394Z,67.21
2022-08-18T03:22:05.827Z,67.52
2022-08-18T03:24:52.704Z,67.68
2022-08-18T03:27:19.554Z,67.43
2022-08-18T03:29:46.322Z,67.09
2022-08-18T03:32:13.181Z,66.80
2022-08-18T03:34:40.048Z,66.93
2022-08-18T03:37:06.807Z,66.71
2022-08-18T03:39:33.644Z,66.87
2022-08-18T03:42:02.098Z,66.96
2022-08-18T03:44:38.673Z,67.29
2022-08-18T03:47:10.852Z,67.63
2022-08-18T03:49:38.620Z,67.71
2022-08-18T03:52:10.009Z,67.58
2022-08-18T03:54:38.809Z,67.78
2022-08-18T03:57:09.433Z,68.08
2022-08-18T03:59:36.463Z,67.46
2022-08-18T04:02:04.994Z,67.20
2022-08-18T04:04:32.194Z,67.48
2022-08-18T04:07:05.605Z,67.62
2022-08-18T04:09:34.460Z,67.50
2022-08-18T04:12:15.286Z,67.57
2022-08-18T04:14:49.130Z,67.61
2022-08-18T04:17:25.196Z,67.83
2022-08-18T04:19:56.662Z,67.91
2022-08-18T04:22:24.964Z,68.65
2022-08-18T04:24:52.220Z,69.02
2022-08-18T04:27:21.966Z,68.77
2022-08-18T04:29:49.304Z,68.55
2022-08-18T04:32:16.668Z,68.04
2022-08-18T04:34:43.500Z,68.31
2022-08-18T04:37:10.848Z,68.51
2022-08-18T04:39:38.228Z,68.37
2022-08-18T04:42:05.858Z,68.29
2022-08-18T04:44:32.742Z,68.45
2022-08-18T04:47:02.004Z,67.85
2022-08-18T04:49:30.251Z,68.35
2022-08-18T04:52:27.063Z,68.33
2022-08-18T04:55:05.598Z,67.98
2022-08-18T04:57:34.098Z,66.82
2022-08-18T05:00:02.953Z,66.04
2022-08-18T05:02:32.872Z,65.72
2022-08-18T05:05:01.278Z,66.21
2022-08-18T05:07:28.216Z,66.96
2022-08-18T05:09:55.430Z,67.39
2022-08-18T05:12:22.849Z,67.12
2022-08-18T05:14:53.802Z,67.77
2022-08-18T05:17:20.556Z,67.91
2022-08-18T05:19:47.606Z,68.31
2022-08-18T05:22:19.499Z,68.32
2022-08-18T05:24:55.327Z,68.48
2022-08-18T05:27:22.106Z,68.48
2022-08-18T05:29:51.586Z,67.83
2022-08-18T05:32:41.014Z,66.96
2022-08-18T05:35:23.019Z,66.30
2022-08-18T05:38:20.407Z,65.36
2022-08-18T05:41:13.737Z,64.98
2022-08-18T05:43:51.303Z,64.62
2022-08-18T05:46:26.025Z,63.94
2022-08-18T05:48:52.873Z,64.08
2022-08-18T05:51:33.715Z,63.20
2022-08-18T05:54:22.057Z,62.56
2022-08-18T05:56:53.713Z,62.74
2022-08-18T05:59:32.001Z,62.57
2022-08-18T06:02:23.729Z,61.17
2022-08-18T06:05:11.730Z,62.25
2022-08-18T06:07:46.895Z,62.06
2022-08-18T06:10:15.001Z,61.93
2022-08-18T06:12:51.182Z,61.21
2022-08-18T06:16:02.461Z,61.55
2022-08-18T06:19:25.709Z,60.79
2022-08-18T06:22:30.543Z,60.70
2022-08-18T06:25:16.444Z,60.73
2022-08-18T06:28:05.728Z,60.55
2022-08-18T06:30:57.638Z,60.81
2022-08-18T06:34:25.025Z,61.09
2022-08-18T06:36:58.785Z,61.24
2022-08-18T06:39:28.378Z,61.47
2022-08-18T06:41:55.199Z,61.73
2022-08-18T06:44:32.300Z,62.53
2022-08-18T06:47:15.406Z,62.88
2022-08-18T06:49:57.670Z,63.89
2022-08-18T06:52:34.470Z,64.60
2022-08-18T06:55:16.613Z,65.23
2022-08-18T06:58:00.330Z,66.17
2022-08-18T07:00:35.436Z,66.28
2022-08-18T07:03:16.841Z,67.35
2022-08-18T07:06:05.513Z,68.22
2022-08-18T07:08:40.103Z,69.11
2022-08-18T07:11:28.212Z,69.06
2022-08-18T07:14:16.454Z,70.05
2022-08-18T07:17:00.266Z,69.42
2022-08-18T07:19:32.165Z,68.45
2022-08-18T07:22:17.240Z,69.51
2022-08-18T07:24:49.204Z,69.41
2022-08-18T07:27:18.775Z,68.51
2022-08-18T07:30:15.472Z,67.94
2022-08-18T07:32:51.459Z,67.68
2022-08-18T07:35:37.603Z,67.05
2022-08-18T07:38:43.061Z,69.80
2022-08-18T07:41:24.086Z,70.17
2022-08-18T07:44:32.007Z,70.43
2022-08-18T07:47:15.051Z,69.23
2022-08-18T07:49:59.949Z,68.27
2022-08-18T07:52:48.526Z,66.06
2022-08-18T07:55:30.104Z,65.74
2022-08-18T07:58:28.304Z,66.50
2022-08-18T08:01:09.447Z,65.85
2022-08-18T08:03:59.263Z,65.87
2022-08-18T08:07:06.163Z,65.64
2022-08-18T08:10:20.963Z,65.58
2022-08-18T08:13:31.250Z,65.81
2022-08-18T08:16:16.110Z,66.45
2022-08-18T08:19:59.479Z,65.49
2022-08-18T08:22:38.307Z,66.10
2022-08-18T08:25:47.650Z,65.99
2022-08-18T08:28:39.449Z,65.22
2022-08-18T08:31:36.594Z,65.32
2022-08-18T08:34:14.185Z,63.05
2022-08-18T08:36:46.166Z,63.26
2022-08-18T08:39:36.148Z,64.55
2022-08-18T08:42:30.402Z,63.88
2022-08-18T08:45:10.699Z,64.16
2022-08-18T08:47:58.513Z,63.62
2022-08-18T08:50:41.143Z,63.65
2022-08-18T08:53:38.905Z,63.34
2022-08-18T08:56:16.568Z,63.17
2022-08-18T08:58:51.454Z,63.69
2022-08-18T09:01:46.932Z,63.65
2022-08-18T09:04:34.391Z,63.47
2022-08-18T09:07:40.802Z,64.02
2022-08-18T09:10:20.837Z,64.17
2022-08-18T09:12:53.655Z,64.54
2022-08-18T09:16:00.523Z,63.63
2022-08-18T09:18:54.003Z,63.74
2022-08-18T09:21:58.258Z,63.57
2022-08-18T09:24:31.594Z,63.84
2022-08-18T09:27:04.186Z,63.67
2022-08-18T09:29:55.834Z,63.75
2022-08-18T09:32:24.227Z,63.61
2022-08-18T09:35:54.830Z,61.94
2022-08-18T09:38:48.850Z,60.78
2022-08-18T09:41:50.891Z,61.37
2022-08-18T09:44:48.560Z,60.89
2022-08-18T09:47:21.723Z,60.98
2022-08-18T09:54:13.530Z,61.01
2022-08-18T09:56:55.666Z,61.08
2022-08-18T09:59:35.042Z,60.97
2022-08-18T10:02:33.759Z,61.28
2022-08-18T10:05:15.666Z,60.72
2022-08-18T10:08:01.423Z,60.48
2022-08-18T10:11:09.458Z,60.47
2022-08-18T10:14:04.014Z,60.56
2022-08-18T10:23:10.637Z,60.30
2022-08-18T10:25:47.528Z,60.14
2022-08-18T10:28:51.935Z,59.75
2022-08-18T10:31:19.026Z,60.06
2022-08-18T10:34:16.610Z,60.22
2022-08-18T10:36:53.147Z,59.67
2022-08-18T10:39:44.914Z,59.63
2022-08-18T10:42:31.010Z,59.50
2022-08-18T10:45:24.599Z,59.87
2022-08-18T10:48:20.060Z,59.69
2022-08-18T10:51:27.427Z,59.60
2022-08-18T10:54:11.829Z,59.66
2022-08-18T10:56:54.369Z,60.04
2022-08-18T10:59:50.665Z,60.04
2022-08-18T11:02:41.543Z,60.86
2022-08-18T11:05:13.435Z,60.85
2022-08-18T11:07:44.950Z,61.06
2022-08-18T11:11:06.218Z,60.73
2022-08-18T11:14:34.019Z,60.75
2022-08-18T11:17:21.089Z,61.08
2022-08-18T11:19:50.786Z,60.67
2022-08-18T11:22:34.451Z,61.00
2022-08-18T11:25:18.672Z,60.46
2022-08-18T11:27:48.744Z,60.38
2022-08-18T11:30:17.670Z,60.62
2022-08-18T11:32:52.243Z,60.46
2022-08-18T11:35:32.593Z,60.66
2022-08-18T11:38:05.239Z,60.25
2022-08-18T11:43:41.145Z,60.21
2022-08-18T11:46:32.003Z,60.26
2022-08-18T11:49:14.049Z,60.34
2022-08-18T11:52:02.239Z,60.65
2022-08-18T11:54:50.929Z,60.61
2022-08-18T11:57:46.155Z,60.42
2022-08-18T12:00:35.783Z,60.69
2022-08-18T12:03:28.558Z,60.67
2022-08-18T12:06:27.944Z,60.75
2022-08-18T12:09:02.768Z,61.10
2022-08-18T12:11:41.229Z,60.91
2022-08-18T12:17:08.521Z,61.19
2022-08-18T12:19:35.408Z,61.17
2022-08-18T12:22:17.860Z,60.88
2022-08-18T12:24:46.456Z,60.92
2022-08-18T12:27:21.664Z,61.01
2022-08-18T12:29:50.794Z,61.39
2022-08-18T12:32:56.033Z,60.91
2022-08-18T12:35:09.124Z,61.14
2022-08-18T12:40:25.779Z,59.63
2022-08-18T12:42:55.627Z,58.76
2022-08-18T12:45:23.557Z,58.62
2022-08-18T12:47:51.710Z,58.51
2022-08-18T12:50:19.700Z,57.84
2022-08-18T12:52:46.772Z,58.16
2022-08-18T13:00:57.576Z,58.07
2022-08-18T13:03:24.653Z,58.11
2022-08-18T13:05:54.590Z,57.83
2022-08-18T13:08:30.458Z,58.14
2022-08-18T13:11:14.640Z,57.60
2022-08-18T13:13:42.734Z,57.31
2022-08-18T13:16:16.352Z,57.32
2022-08-18T13:18:57.763Z,57.22
2022-08-18T13:21:26.573Z,56.83
2022-08-18T13:24:06.232Z,57.22
2022-08-18T13:26:42.274Z,57.33
2022-08-18T13:29:14.214Z,56.95
2022-08-18T13:31:41.091Z,56.80
2022-08-18T13:34:20.516Z,57.13
2022-08-18T13:36:48.278Z,57.29
2022-08-18T13:39:19.091Z,57.41
2022-08-18T13:41:49.243Z,57.65
2022-08-18T13:44:18.638Z,57.28
2022-08-18T13:46:48.222Z,58.08
2022-08-18T13:49:23.647Z,58.04
2022-08-18T13:52:00.322Z,57.75
2022-08-18T13:54:34.102Z,57.08
2022-08-18T13:57:03.759Z,57.05
2022-08-18T13:59:33.048Z,57.67
2022-08-18T14:02:09.547Z,57.98
2022-08-18T14:04:38.449Z,57.79
2022-08-18T14:07:10.998Z,57.82
2022-08-18T14:09:39.313Z,58.02
2022-08-18T14:12:23.131Z,58.07
2022-08-18T14:14:55.262Z,58.37
2022-08-18T14:17:27.126Z,58.82
2022-08-18T14:20:15.222Z,59.17
2022-08-18T14:23:09.463Z,59.22
2022-08-18T14:25:55.002Z,58.32
2022-08-18T14:28:24.727Z,58.26
2022-08-18T14:30:54.428Z,57.96
2022-08-18T14:33:49.624Z,57.98
2022-08-18T14:36:14.847Z,57.96
2022-08-18T14:38:42.843Z,57.92
2022-08-18T14:41:14.700Z,58.02
2022-08-18T14:44:10.315Z,59.03
2022-08-18T14:46:32.704Z,59.47
2022-08-18T14:49:04.078Z,59.27
2022-08-18T14:51:33.410Z,59.62
2022-08-18T14:54:01.565Z,59.39
2022-08-18T14:56:33.600Z,60.13
2022-08-18T14:59:11.188Z,59.51
2022-08-18T15:01:42.547Z,58.47
2022-08-18T15:04:18.332Z,58.44
2022-08-18T15:06:55.961Z,58.01
2022-08-18T15:09:30.271Z,58.22
2022-08-18T15:11:59.258Z,57.68
2022-08-18T15:14:33.543Z,58.08
2022-08-18T15:17:11.976Z,58.22
2022-08-18T15:19:59.029Z,58.22
2022-08-18T15:22:47.798Z,58.31
2022-08-18T15:25:34.382Z,58.78
2022-08-18T15:28:01.690Z,58.64
2022-08-18T15:30:29.182Z,58.79
2022-08-18T15:32:58.918Z,58.81
2022-08-18T15:35:25.994Z,59.03
2022-08-18T15:37:54.660Z,58.81
2022-08-18T15:40:30.663Z,58.78
2022-08-18T15:43:09.696Z,58.59
2022-08-18T15:45:56.210Z,58.68
2022-08-18T15:48:27.833Z,58.99
2022-08-18T15:50:55.886Z,59.26
2022-08-18T15:53:29.790Z,58.80
2022-08-18T15:55:57.837Z,59.73
2022-08-18T15:58:26.868Z,60.03
2022-08-18T16:00:58.928Z,59.50
2022-08-18T16:03:31.632Z,59.61
2022-08-18T16:06:00.155Z,59.75
2022-08-18T16:08:28.068Z,59.65
2022-08-18T16:10:55.508Z,59.88
2022-08-18T16:13:26.332Z,59.50
2022-08-18T16:15:55.266Z,59.46
2022-08-18T16:18:22.159Z,59.65
2022-08-18T16:20:50.703Z,60.12
2022-08-18T16:23:23.646Z,60.03
2022-08-18T16:25:50.582Z,59.69
2022-08-18T16:28:17.533Z,59.96
2022-08-18T16:30:47.045Z,59.69
2022-08-18T16:33:13.926Z,60.11
2022-08-18T16:35:45.256Z,59.80
2022-08-18T16:38:12.433Z,60.03
2022-08-18T16:40:41.064Z,60.70
2022-08-18T16:43:08.851Z,60.57
2022-08-18T16:45:42.428Z,60.44
2022-08-18T16:48:13.354Z,60.53
2022-08-18T16:50:45.283Z,60.45
2022-08-18T16:53:12.068Z,60.30
2022-08-18T16:55:38.987Z,60.20
2022-08-18T16:58:24.451Z,60.64
2022-08-18T17:01:14.924Z,60.59
2022-08-18T17:04:04.195Z,61.34
2022-08-18T17:06:47.470Z,62.10
2022-08-18T17:09:15.856Z,62.74
2022-08-18T17:11:51.145Z,62.73
2022-08-18T17:14:21.178Z,63.49
2022-08-18T17:16:54.806Z,63.18
2022-08-18T17:19:26.155Z,62.44
2022-08-18T17:21:53.807Z,63.36
2022-08-18T17:24:27.696Z,63.48
2022-08-18T17:27:12.074Z,63.44
2022-08-18T17:30:20.069Z,63.64
2022-08-18T17:33:06.011Z,63.62
2022-08-18T17:35:41.406Z,63.33
2022-08-18T17:38:54.107Z,63.40
2022-08-18T17:41:21.206Z,64.18
2022-08-18T17:43:48.119Z,64.62
2022-08-18T17:46:29.323Z,64.84
2022-08-18T17:49:12.901Z,64.42
2022-08-18T17:51:48.910Z,64.50
2022-08-18T17:54:36.375Z,64.77
2022-08-18T17:57:34.446Z,64.25
2022-08-18T18:00:17.225Z,66.07
2022-08-18T18:02:47.524Z,65.78
2022-08-18T18:05:20.398Z,65.14
2022-08-18T18:07:52.902Z,65.46
2022-08-18T18:10:51.005Z,66.41
2022-08-18T18:13:23.936Z,67.42
2022-08-18T18:15:56.359Z,70.51
2022-08-18T18:18:32.211Z,71.17
2022-08-18T18:21:15.506Z,71.57
2022-08-18T18:24:11.031Z,71.90
2022-08-18T18:26:42.784Z,72.91
2022-08-18T18:29:37.717Z,71.98
2022-08-18T18:32:26.163Z,71.15
2022-08-18T18:35:19.839Z,72.23
2022-08-18T18:38:01.346Z,72.73
2022-08-18T18:41:01.933Z,73.11
2022-08-18T18:43:43.488Z,72.88
2022-08-18T18:46:27.154Z,71.45
2022-08-18T18:49:18.880Z,70.98
2022-08-18T18:52:37.167Z,71.20
2022-08-18T18:55:12.973Z,71.00
2022-08-18T18:57:57.469Z,72.38
2022-08-18T19:00:53.799Z,73.41
2022-08-18T19:03:42.422Z,71.60
2022-08-18T19:06:31.449Z,70.96
2022-08-18T19:09:17.149Z,70.61
2022-08-18T19:12:34.266Z,70.98
2022-08-18T19:15:10.596Z,70.94
2022-08-18T19:18:08.465Z,70.83
2022-08-18T19:22:04.974Z,70.85
2022-08-18T19:23:59.605Z,70.22
2022-08-18T19:26:39.426Z,70.26
2022-08-18T19:29:14.677Z,70.53
2022-08-18T19:31:55.379Z,70.48
2022-08-18T19:34:33.486Z,70.71
2022-08-18T19:37:27.246Z,70.53
2022-08-18T19:40:42.753Z,70.55
2022-08-18T19:44:05.374Z,70.14
2022-08-18T19:46:45.161Z,70.05
2022-08-18T19:49:47.159Z,70.74
2022-08-18T19:52:55.989Z,70.76
2022-08-18T19:56:21.693Z,71.18
2022-08-18T19:59:48.667Z,71.49
2022-08-18T20:02:42.449Z,71.29
2022-08-18T20:05:55.003Z,71.22
2022-08-18T20:08:51.368Z,70.31
2022-08-18T20:11:45.263Z,71.13
2022-08-18T20:14:18.993Z,71.86
2022-08-18T20:17:22.992Z,73.34
2022-08-18T20:20:15.956Z,75.12
2022-08-18T20:22:46.644Z,77.04
2022-08-18T20:27:57.849Z,79.06
2022-08-18T20:30:27.442Z,78.32
2022-08-18T20:33:15.035Z,77.53
2022-08-18T20:36:30.496Z,77.88
2022-08-18T20:39:00.976Z,77.74
2022-08-18T20:41:50.504Z,79.37
2022-08-18T20:44:48.213Z,80.45
2022-08-18T20:47:28.414Z,82.03
2022-08-18T20:50:35.509Z,81.32
2022-08-18T20:53:22.490Z,82.54
2022-08-18T20:56:43.539Z,84.35
2022-08-18T20:59:21.227Z,85.09
2022-08-18T21:02:23.039Z,85.74
2022-08-18T21:05:03.924Z,86.54
2022-08-18T21:07:38.800Z,86.52
2022-08-18T21:10:28.693Z,86.25
2022-08-18T21:13:04.670Z,85.90
2022-08-18T21:15:39.008Z,84.98
2022-08-18T21:18:18.673Z,83.78
2022-08-18T21:20:50.001Z,83.35
2022-08-18T21:23:30.721Z,84.01
2022-08-18T21:26:16.142Z,84.97
2022-08-18T21:28:54.855Z,87.20
2022-08-18T21:31:44.213Z,84.42
2022-08-18T21:34:41.748Z,82.07
2022-08-18T21:37:16.035Z,81.47
2022-08-18T21:40:00.102Z,80.08
2022-08-18T21:42:45.968Z,79.74
2022-08-18T21:45:23.270Z,79.38
2022-08-18T21:48:04.806Z,79.30
2022-08-18T21:50:35.059Z,79.84
2022-08-18T21:53:06.765Z,78.73
2022-08-18T21:55:45.280Z,77.91
2022-08-18T21:58:18.515Z,78.10
2022-08-18T22:01:24.579Z,78.16
2022-08-18T22:04:27.873Z,78.31
2022-08-18T22:07:02.466Z,77.53
2022-08-18T22:09:53.109Z,78.72
2022-08-18T22:12:53.279Z,79.14
2022-08-18T22:15:26.660Z,79.90
2022-08-18T22:18:27.282Z,80.75
2022-08-18T22:21:03.148Z,81.70
2022-08-18T22:24:04.600Z,83.75
2022-08-18T22:26:41.322Z,85.45
2022-08-18T22:29:32.527Z,85.56
2022-08-18T22:32:02.313Z,85.19
2022-08-18T22:34:34.315Z,84.64
2022-08-18T22:37:27.038Z,83.01
2022-08-18T22:39:59.876Z,80.48
2022-08-18T22:42:33.024Z,79.59
2022-08-18T22:45:04.978Z,79.57
2022-08-18T22:47:42.914Z,78.71
2022-08-18T22:50:13.145Z,80.07
2022-08-18T22:52:49.457Z,81.08
2022-08-18T22:55:21.697Z,80.03
2022-08-18T22:57:54.770Z,79.81
2022-08-18T23:00:23.144Z,79.14
2022-08-18T23:02:51.548Z,79.96
2022-08-18T23:05:18.482Z,80.41
2022-08-18T23:07:46.041Z,81.57
2022-08-18T23:10:16.365Z,81.02
2022-08-18T23:12:46.734Z,81.05
2022-08-18T23:15:16.758Z,81.89
2022-08-18T23:17:44.044Z,82.58
2022-08-18T23:20:18.223Z,81.42
2022-08-18T23:22:47.955Z,80.64
2022-08-18T23:25:15.620Z,80.83
2022-08-18T23:27:42.844Z,81.26
2022-08-18T23:30:10.874Z,81.22
2022-08-18T23:32:37.799Z,81.83
2022-08-18T23:35:05.374Z,83.79
2022-08-18T23:37:32.447Z,83.73
2022-08-18T23:39:59.693Z,84.82
2022-08-18T23:42:26.813Z,85.31
2022-08-18T23:44:53.874Z,85.05
2022-08-18T23:47:20.831Z,86.55
2022-08-18T23:49:48.416Z,86.16
2022-08-18T23:52:15.899Z,84.34
2022-08-18T23:54:45.357Z,84.02
2022-08-18T23:57:12.186Z,83.73
2022-08-18T23:59:38.950Z,84.02
